sensor_id;sensor_type;location;lat;lon;timestamp;temperature;humidity
35463;DHT22;21578;47.892;9.970;2022-08-19T00:00:13;17.00;96.60
35463;DHT22;21578;47.892;9.970;2022-08-19T00:05:03;17.00;96.60
35463;DHT22;21578;47.892;9.970;2022-08-19T00:09:50;17.10;96.60
35463;DHT22;21578;47.892;9.970;2022-08-19T00:14:37;17.10;96.60
35463;DHT22;21578;47.892;9.970;2022-08-19T00:19:24;17.10;96.60
35463;DHT22;21578;47.892;9.970;2022-08-19T00:24:14;17.10;96.60
35463;DHT22;21578;47.892;9.970;2022-08-19T00:29:00;17.20;96.60
35463;DHT22;21578;47.892;9.970;2022-08-19T00:33:47;17.20;96.60
35463;DHT22;21578;47.892;9.970;2022-08-19T00:38:37;17.20;96.60
35463;DHT22;21578;47.892;9.970;2022-08-19T00:43:29;17.20;96.60
35463;DHT22;21578;47.892;9.970;2022-08-19T00:48:16;17.20;96.60
35463;DHT22;21578;47.892;9.970;2022-08-19T00:53:03;17.20;96.60
35463;DHT22;21578;47.892;9.970;2022-08-19T00:57:54;17.20;96.60
35463;DHT22;21578;47.892;9.970;2022-08-19T01:02:43;17.30;96.60
35463;DHT22;21578;47.892;9.970;2022-08-19T01:07:30;17.30;96.60
35463;DHT22;21578;47.892;9.970;2022-08-19T01:12:17;17.30;96.60
35463;DHT22;21578;47.892;9.970;2022-08-19T01:17:05;17.40;96.60
35463;DHT22;21578;47.892;9.970;2022-08-19T01:21:58;17.30;96.60
35463;DHT22;21578;47.892;9.970;2022-08-19T01:26:48;17.30;96.60
35463;DHT22;21578;47.892;9.970;2022-08-19T01:31:35;17.20;96.60
35463;DHT22;21578;47.892;9.970;2022-08-19T01:36:26;17.20;96.60
35463;DHT22;21578;47.892;9.970;2022-08-19T01:41:12;17.20;96.60
35463;DHT22;21578;47.892;9.970;2022-08-19T01:46:04;17.30;96.60
35463;DHT22;21578;47.892;9.970;2022-08-19T01:50:51;17.30;96.60
35463;DHT22;21578;47.892;9.970;2022-08-19T01:55:40;17.20;96.60
35463;DHT22;21578;47.892;9.970;2022-08-19T02:00:30;17.30;96.60
35463;DHT22;21578;47.892;9.970;2022-08-19T02:05:19;17.20;96.60
35463;DHT22;21578;47.892;9.970;2022-08-19T02:10:09;17.20;96.60
35463;DHT22;21578;47.892;9.970;2022-08-19T02:14:56;17.20;96.60
35463;DHT22;21578;47.892;9.970;2022-08-19T02:19:43;17.20;96.60
35463;DHT22;21578;47.892;9.970;2022-08-19T02:24:31;17.30;96.60
35463;DHT22;21578;47.892;9.970;2022-08-19T02:29:18;17.20;96.60
35463;DHT22;21578;47.892;9.970;2022-08-19T02:34:05;17.20;96.60
35463;DHT22;21578;47.892;9.970;2022-08-19T02:38:52;17.20;96.60
35463;DHT22;21578;47.892;9.970;2022-08-19T02:43:40;17.30;96.60
35463;DHT22;21578;47.892;9.970;2022-08-19T02:48:27;17.30;96.60
35463;DHT22;21578;47.892;9.970;2022-08-19T02:53:14;17.30;96.60
35463;DHT22;21578;47.892;9.970;2022-08-19T02:58:01;17.30;96.60
35463;DHT22;21578;47.892;9.970;2022-08-19T03:02:50;17.20;96.60
35463;DHT22;21578;47.892;9.970;2022-08-19T03:07:37;17.10;96.60
35463;DHT22;21578;47.892;9.970;2022-08-19T03:12:24;17.10;96.60
35463;DHT22;21578;47.892;9.970;2022-08-19T03:17:10;17.00;96.60
35463;DHT22;21578;47.892;9.970;2022-08-19T03:21:59;16.90;96.60
35463;DHT22;21578;47.892;9.970;2022-08-19T03:26:49;16.80;96.60
35463;DHT22;21578;47.892;9.970;2022-08-19T03:31:38;16.80;96.60
35463;DHT22;21578;47.892;9.970;2022-08-19T03:36:26;16.80;96.60
35463;DHT22;21578;47.892;9.970;2022-08-19T03:41:17;16.80;96.60
35463;DHT22;21578;47.892;9.970;2022-08-19T03:46:06;16.80;96.60
35463;DHT22;21578;47.892;9.970;2022-08-19T03:50:53;16.70;96.60
35463;DHT22;21578;47.892;9.970;2022-08-19T03:55:41;16.60;96.60
35463;DHT22;21578;47.892;9.970;2022-08-19T04:00:29;16.60;96.60
35463;DHT22;21578;47.892;9.970;2022-08-19T04:05:16;16.70;96.60
35463;DHT22;21578;47.892;9.970;2022-08-19T04:10:04;16.70;96.60
35463;DHT22;21578;47.892;9.970;2022-08-19T04:14:51;16.70;96.60
35463;DHT22;21578;47.892;9.970;2022-08-19T04:19:39;16.70;96.60
35463;DHT22;21578;47.892;9.970;2022-08-19T04:24:26;16.70;96.60
35463;DHT22;21578;47.892;9.970;2022-08-19T04:29:15;16.70;96.60
35463;DHT22;21578;47.892;9.970;2022-08-19T04:34:05;16.70;96.60
35463;DHT22;21578;47.892;9.970;2022-08-19T04:38:55;16.60;96.60
35463;DHT22;21578;47.892;9.970;2022-08-19T04:43:45;16.60;96.60
35463;DHT22;21578;47.892;9.970;2022-08-19T04:48:34;16.60;96.60
35463;DHT22;21578;47.892;9.970;2022-08-19T04:53:21;16.60;96.60
35463;DHT22;21578;47.892;9.970;2022-08-19T04:58:09;16.60;96.60
35463;DHT22;21578;47.892;9.970;2022-08-19T05:02:56;16.60;96.60
35463;DHT22;21578;47.892;9.970;2022-08-19T05:07:43;16.70;96.60
35463;DHT22;21578;47.892;9.970;2022-08-19T05:12:30;16.70;96.60
35463;DHT22;21578;47.892;9.970;2022-08-19T05:17:18;16.60;96.60
35463;DHT22;21578;47.892;9.970;2022-08-19T05:22:05;16.60;96.60
35463;DHT22;21578;47.892;9.970;2022-08-19T05:27:09;16.60;96.60
35463;DHT22;21578;47.892;9.970;2022-08-19T05:31:56;16.50;96.60
35463;DHT22;21578;47.892;9.970;2022-08-19T05:36:45;16.40;96.60
35463;DHT22;21578;47.892;9.970;2022-08-19T05:41:32;16.50;96.60
35463;DHT22;21578;47.892;9.970;2022-08-19T05:46:19;16.60;96.60
35463;DHT22;21578;47.892;9.970;2022-08-19T05:51:07;16.70;96.60
35463;DHT22;21578;47.892;9.970;2022-08-19T05:55:55;16.70;96.60
35463;DHT22;21578;47.892;9.970;2022-08-19T06:00:43;16.70;96.60
35463;DHT22;21578;47.892;9.970;2022-08-19T06:05:30;16.60;96.60
35463;DHT22;21578;47.892;9.970;2022-08-19T06:10:17;16.70;96.60
35463;DHT22;21578;47.892;9.970;2022-08-19T06:15:09;16.60;96.60
35463;DHT22;21578;47.892;9.970;2022-08-19T06:19:58;16.50;96.60
35463;DHT22;21578;47.892;9.970;2022-08-19T06:24:45;16.50;96.60
35463;DHT22;21578;47.892;9.970;2022-08-19T06:29:32;16.40;96.60
35463;DHT22;21578;47.892;9.970;2022-08-19T06:34:22;16.40;96.60
35463;DHT22;21578;47.892;9.970;2022-08-19T06:39:11;16.40;96.60
35463;DHT22;21578;47.892;9.970;2022-08-19T06:43:58;16.40;96.60
35463;DHT22;21578;47.892;9.970;2022-08-19T06:48:45;16.40;96.60
35463;DHT22;21578;47.892;9.970;2022-08-19T06:53:33;16.40;96.60
35463;DHT22;21578;47.892;9.970;2022-08-19T06:58:20;16.40;96.60
35463;DHT22;21578;47.892;9.970;2022-08-19T07:03:07;16.50;96.60
35463;DHT22;21578;47.892;9.970;2022-08-19T07:07:54;16.50;96.60
35463;DHT22;21578;47.892;9.970;2022-08-19T07:12:43;16.50;96.60
35463;DHT22;21578;47.892;9.970;2022-08-19T07:17:30;16.50;96.60
35463;DHT22;21578;47.892;9.970;2022-08-19T07:22:17;16.50;96.60
35463;DHT22;21578;47.892;9.970;2022-08-19T07:27:06;16.50;96.60
35463;DHT22;21578;47.892;9.970;2022-08-19T07:31:57;16.40;96.60
35463;DHT22;21578;47.892;9.970;2022-08-19T07:36:44;16.50;96.60
35463;DHT22;21578;47.892;9.970;2022-08-19T07:41:31;16.50;96.60
35463;DHT22;21578;47.892;9.970;2022-08-19T07:46:18;16.50;96.60
35463;DHT22;21578;47.892;9.970;2022-08-19T07:51:08;16.50;96.60
35463;DHT22;21578;47.892;9.970;2022-08-19T07:55:56;16.50;96.60
35463;DHT22;21578;47.892;9.970;2022-08-19T08:00:48;16.50;96.60
35463;DHT22;21578;47.892;9.970;2022-08-19T08:05:36;16.50;96.60
35463;DHT22;21578;47.892;9.970;2022-08-19T08:10:42;16.60;96.60
35463;DHT22;21578;47.892;9.970;2022-08-19T08:15:29;16.70;96.60
35463;DHT22;21578;47.892;9.970;2022-08-19T08:20:16;16.60;96.60
35463;DHT22;21578;47.892;9.970;2022-08-19T08:25:05;16.70;96.60
35463;DHT22;21578;47.892;9.970;2022-08-19T08:29:53;16.70;96.60
35463;DHT22;21578;47.892;9.970;2022-08-19T08:34:40;16.70;96.60
35463;DHT22;21578;47.892;9.970;2022-08-19T08:39:27;16.70;96.60
35463;DHT22;21578;47.892;9.970;2022-08-19T08:44:18;16.70;96.60
35463;DHT22;21578;47.892;9.970;2022-08-19T08:49:21;16.70;96.60
35463;DHT22;21578;47.892;9.970;2022-08-19T08:54:12;16.70;96.60
35463;DHT22;21578;47.892;9.970;2022-08-19T08:59:03;16.70;96.60
35463;DHT22;21578;47.892;9.970;2022-08-19T09:03:52;16.80;96.60
35463;DHT22;21578;47.892;9.970;2022-08-19T09:08:48;16.70;96.60
35463;DHT22;21578;47.892;9.970;2022-08-19T09:13:42;16.70;96.60
35463;DHT22;21578;47.892;9.970;2022-08-19T09:18:41;16.80;96.60
35463;DHT22;21578;47.892;9.970;2022-08-19T09:23:29;16.70;96.60
35463;DHT22;21578;47.892;9.970;2022-08-19T09:28:18;16.70;96.60
35463;DHT22;21578;47.892;9.970;2022-08-19T09:33:08;16.70;96.60
35463;DHT22;21578;47.892;9.970;2022-08-19T09:37:56;16.70;96.60
35463;DHT22;21578;47.892;9.970;2022-08-19T09:42:43;16.70;96.60
35463;DHT22;21578;47.892;9.970;2022-08-19T09:47:33;16.70;96.60
35463;DHT22;21578;47.892;9.970;2022-08-19T09:52:23;16.70;96.60
35463;DHT22;21578;47.892;9.970;2022-08-19T09:57:10;16.70;96.60
35463;DHT22;21578;47.892;9.970;2022-08-19T10:01:57;16.70;96.60
35463;DHT22;21578;47.892;9.970;2022-08-19T10:06:45;16.70;96.60
35463;DHT22;21578;47.892;9.970;2022-08-19T10:11:33;16.80;96.60
35463;DHT22;21578;47.892;9.970;2022-08-19T10:16:23;16.80;96.60
35463;DHT22;21578;47.892;9.970;2022-08-19T10:21:12;16.80;96.60
35463;DHT22;21578;47.892;9.970;2022-08-19T10:26:01;16.80;96.60
35463;DHT22;21578;47.892;9.970;2022-08-19T10:30:48;16.90;96.60
35463;DHT22;21578;47.892;9.970;2022-08-19T10:35:35;16.90;96.60
35463;DHT22;21578;47.892;9.970;2022-08-19T10:40:23;17.00;96.60
35463;DHT22;21578;47.892;9.970;2022-08-19T10:45:11;17.00;96.60
35463;DHT22;21578;47.892;9.970;2022-08-19T10:49:58;17.00;96.60
35463;DHT22;21578;47.892;9.970;2022-08-19T10:55:04;17.10;96.60
35463;DHT22;21578;47.892;9.970;2022-08-19T11:00:12;17.10;96.60
35463;DHT22;21578;47.892;9.970;2022-08-19T11:05:00;17.10;96.60
35463;DHT22;21578;47.892;9.970;2022-08-19T11:09:46;17.20;96.60
35463;DHT22;21578;47.892;9.970;2022-08-19T11:14:34;17.20;96.60
35463;DHT22;21578;47.892;9.970;2022-08-19T11:19:22;17.20;96.60
35463;DHT22;21578;47.892;9.970;2022-08-19T11:24:11;17.20;96.60
35463;DHT22;21578;47.892;9.970;2022-08-19T11:28:59;17.30;96.60
35463;DHT22;21578;47.892;9.970;2022-08-19T11:33:47;17.30;96.60
35463;DHT22;21578;47.892;9.970;2022-08-19T11:38:37;17.20;96.60
35463;DHT22;21578;47.892;9.970;2022-08-19T11:43:25;17.10;96.60
35463;DHT22;21578;47.892;9.970;2022-08-19T11:48:12;17.10;96.60
35463;DHT22;21578;47.892;9.970;2022-08-19T11:52:59;17.00;96.60
35463;DHT22;21578;47.892;9.970;2022-08-19T11:57:47;17.00;96.60
35463;DHT22;21578;47.892;9.970;2022-08-19T12:02:34;17.00;96.60
35463;DHT22;21578;47.892;9.970;2022-08-19T12:07:21;17.00;96.60
35463;DHT22;21578;47.892;9.970;2022-08-19T12:12:08;16.90;96.60
35463;DHT22;21578;47.892;9.970;2022-08-19T12:16:57;16.90;96.60
35463;DHT22;21578;47.892;9.970;2022-08-19T12:21:44;16.90;96.60
35463;DHT22;21578;47.892;9.970;2022-08-19T12:26:31;17.00;96.60
35463;DHT22;21578;47.892;9.970;2022-08-19T12:31:18;17.10;96.60
35463;DHT22;21578;47.892;9.970;2022-08-19T12:36:09;17.00;96.60
35463;DHT22;21578;47.892;9.970;2022-08-19T12:40:57;17.00;96.60
35463;DHT22;21578;47.892;9.970;2022-08-19T12:45:44;17.00;96.60
35463;DHT22;21578;47.892;9.970;2022-08-19T12:50:31;17.00;96.60
35463;DHT22;21578;47.892;9.970;2022-08-19T12:55:19;17.00;96.60
35463;DHT22;21578;47.892;9.970;2022-08-19T13:00:09;17.00;96.60
35463;DHT22;21578;47.892;9.970;2022-08-19T13:04:57;17.10;96.60
35463;DHT22;21578;47.892;9.970;2022-08-19T13:09:44;17.00;96.60
35463;DHT22;21578;47.892;9.970;2022-08-19T13:14:33;17.00;96.60
35463;DHT22;21578;47.892;9.970;2022-08-19T13:19:20;16.90;96.60
35463;DHT22;21578;47.892;9.970;2022-08-19T13:24:08;16.90;96.60
35463;DHT22;21578;47.892;9.970;2022-08-19T13:28:55;16.90;96.60
35463;DHT22;21578;47.892;9.970;2022-08-19T13:34:01;16.90;96.60
35463;DHT22;21578;47.892;9.970;2022-08-19T13:38:48;16.90;96.60
35463;DHT22;21578;47.892;9.970;2022-08-19T13:43:35;16.90;96.60
35463;DHT22;21578;47.892;9.970;2022-08-19T13:48:23;16.90;96.60
35463;DHT22;21578;47.892;9.970;2022-08-19T13:53:13;16.80;96.60
35463;DHT22;21578;47.892;9.970;2022-08-19T13:58:00;16.90;96.60
35463;DHT22;21578;47.892;9.970;2022-08-19T14:02:51;16.90;96.60
35463;DHT22;21578;47.892;9.970;2022-08-19T14:07:38;16.90;96.60
35463;DHT22;21578;47.892;9.970;2022-08-19T14:12:26;16.90;96.60
35463;DHT22;21578;47.892;9.970;2022-08-19T14:17:13;16.80;96.60
35463;DHT22;21578;47.892;9.970;2022-08-19T14:22:00;16.80;96.60
35463;DHT22;21578;47.892;9.970;2022-08-19T14:26:47;16.70;96.60
35463;DHT22;21578;47.892;9.970;2022-08-19T14:31:36;16.60;96.60
35463;DHT22;21578;47.892;9.970;2022-08-19T14:36:25;16.60;96.60
35463;DHT22;21578;47.892;9.970;2022-08-19T14:41:14;16.60;96.60
35463;DHT22;21578;47.892;9.970;2022-08-19T14:46:02;16.50;96.60
35463;DHT22;21578;47.892;9.970;2022-08-19T14:50:51;16.40;96.60
35463;DHT22;21578;47.892;9.970;2022-08-19T14:55:41;16.30;96.60
35463;DHT22;21578;47.892;9.970;2022-08-19T15:00:28;16.30;96.60
35463;DHT22;21578;47.892;9.970;2022-08-19T15:05:15;16.10;96.60
35463;DHT22;21578;47.892;9.970;2022-08-19T15:10:05;16.10;96.60
35463;DHT22;21578;47.892;9.970;2022-08-19T15:14:53;16.10;96.60
35463;DHT22;21578;47.892;9.970;2022-08-19T15:19:40;16.10;96.60
35463;DHT22;21578;47.892;9.970;2022-08-19T15:24:27;16.10;96.60
35463;DHT22;21578;47.892;9.970;2022-08-19T15:29:15;16.20;96.60
35463;DHT22;21578;47.892;9.970;2022-08-19T15:34:02;16.20;96.60
35463;DHT22;21578;47.892;9.970;2022-08-19T15:38:52;16.20;96.60
35463;DHT22;21578;47.892;9.970;2022-08-19T15:43:41;16.20;96.60
35463;DHT22;21578;47.892;9.970;2022-08-19T15:48:29;16.20;96.60
35463;DHT22;21578;47.892;9.970;2022-08-19T15:53:16;16.20;96.60
35463;DHT22;21578;47.892;9.970;2022-08-19T15:58:05;16.20;96.60
35463;DHT22;21578;47.892;9.970;2022-08-19T16:03:13;16.20;96.60
35463;DHT22;21578;47.892;9.970;2022-08-19T16:08:19;16.20;96.60
35463;DHT22;21578;47.892;9.970;2022-08-19T16:13:06;16.20;96.60
35463;DHT22;21578;47.892;9.970;2022-08-19T16:17:56;16.30;96.60
35463;DHT22;21578;47.892;9.970;2022-08-19T16:22:43;16.30;96.60
35463;DHT22;21578;47.892;9.970;2022-08-19T16:27:32;16.40;96.60
35463;DHT22;21578;47.892;9.970;2022-08-19T16:32:19;16.40;96.60
35463;DHT22;21578;47.892;9.970;2022-08-19T16:37:06;16.50;96.60
35463;DHT22;21578;47.892;9.970;2022-08-19T16:41:54;16.50;96.60
35463;DHT22;21578;47.892;9.970;2022-08-19T16:46:42;16.50;96.60
35463;DHT22;21578;47.892;9.970;2022-08-19T16:51:31;16.60;96.60
35463;DHT22;21578;47.892;9.970;2022-08-19T16:56:19;16.60;96.60
35463;DHT22;21578;47.892;9.970;2022-08-19T17:01:08;16.60;96.60
35463;DHT22;21578;47.892;9.970;2022-08-19T17:05:58;16.60;96.60
35463;DHT22;21578;47.892;9.970;2022-08-19T17:10:48;16.60;96.60
35463;DHT22;21578;47.892;9.970;2022-08-19T17:15:35;16.60;96.60
35463;DHT22;21578;47.892;9.970;2022-08-19T17:20:22;16.60;96.60
35463;DHT22;21578;47.892;9.970;2022-08-19T17:25:10;16.70;96.60
35463;DHT22;21578;47.892;9.970;2022-08-19T17:29:57;16.60;96.60
35463;DHT22;21578;47.892;9.970;2022-08-19T17:34:45;16.70;96.60
35463;DHT22;21578;47.892;9.970;2022-08-19T17:39:32;16.70;96.60
35463;DHT22;21578;47.892;9.970;2022-08-19T17:44:20;16.70;96.60
35463;DHT22;21578;47.892;9.970;2022-08-19T17:49:07;16.70;96.60
35463;DHT22;21578;47.892;9.970;2022-08-19T17:53:54;16.60;96.60
35463;DHT22;21578;47.892;9.970;2022-08-19T17:58:41;16.60;96.60
35463;DHT22;21578;47.892;9.970;2022-08-19T18:03:29;16.60;96.60
35463;DHT22;21578;47.892;9.970;2022-08-19T18:08:16;16.60;96.60
35463;DHT22;21578;47.892;9.970;2022-08-19T18:13:03;16.60;96.60
35463;DHT22;21578;47.892;9.970;2022-08-19T18:17:51;16.60;96.60
35463;DHT22;21578;47.892;9.970;2022-08-19T18:22:42;16.60;96.60
35463;DHT22;21578;47.892;9.970;2022-08-19T18:27:29;16.60;96.60
35463;DHT22;21578;47.892;9.970;2022-08-19T18:32:16;16.60;96.60
35463;DHT22;21578;47.892;9.970;2022-08-19T18:37:04;16.60;96.60
35463;DHT22;21578;47.892;9.970;2022-08-19T18:41:53;16.60;96.60
35463;DHT22;21578;47.892;9.970;2022-08-19T18:46:57;16.60;96.60
35463;DHT22;21578;47.892;9.970;2022-08-19T18:52:06;16.60;96.60
35463;DHT22;21578;47.892;9.970;2022-08-19T18:56:55;16.50;96.60
35463;DHT22;21578;47.892;9.970;2022-08-19T19:01:43;16.50;96.60
35463;DHT22;21578;47.892;9.970;2022-08-19T19:06:37;16.70;96.60
35463;DHT22;21578;47.892;9.970;2022-08-19T19:11:27;16.60;96.60
35463;DHT22;21578;47.892;9.970;2022-08-19T19:16:16;16.60;96.60
35463;DHT22;21578;47.892;9.970;2022-08-19T19:21:03;16.60;96.60
35463;DHT22;21578;47.892;9.970;2022-08-19T19:25:51;16.60;96.60
35463;DHT22;21578;47.892;9.970;2022-08-19T19:30:38;16.60;96.60
35463;DHT22;21578;47.892;9.970;2022-08-19T19:35:26;16.60;96.60
35463;DHT22;21578;47.892;9.970;2022-08-19T19:40:14;16.60;96.60
35463;DHT22;21578;47.892;9.970;2022-08-19T19:45:01;16.80;96.60
35463;DHT22;21578;47.892;9.970;2022-08-19T19:49:48;16.60;96.60
35463;DHT22;21578;47.892;9.970;2022-08-19T19:54:38;16.50;96.60
35463;DHT22;21578;47.892;9.970;2022-08-19T19:59:26;16.40;96.60
35463;DHT22;21578;47.892;9.970;2022-08-19T20:04:13;16.30;96.60
35463;DHT22;21578;47.892;9.970;2022-08-19T20:09:00;16.50;96.60
35463;DHT22;21578;47.892;9.970;2022-08-19T20:13:56;16.50;96.60
35463;DHT22;21578;47.892;9.970;2022-08-19T20:18:45;16.60;96.60
35463;DHT22;21578;47.892;9.970;2022-08-19T20:23:32;16.60;96.60
35463;DHT22;21578;47.892;9.970;2022-08-19T20:28:19;16.60;96.60
35463;DHT22;21578;47.892;9.970;2022-08-19T20:33:08;16.60;96.60
35463;DHT22;21578;47.892;9.970;2022-08-19T20:37:55;16.60;96.60
35463;DHT22;21578;47.892;9.970;2022-08-19T20:42:43;16.70;96.60
35463;DHT22;21578;47.892;9.970;2022-08-19T20:47:30;16.60;96.60
35463;DHT22;21578;47.892;9.970;2022-08-19T20:52:18;16.60;96.60
35463;DHT22;21578;47.892;9.970;2022-08-19T20:57:05;16.70;96.60
35463;DHT22;21578;47.892;9.970;2022-08-19T21:01:53;16.60;96.60
35463;DHT22;21578;47.892;9.970;2022-08-19T21:06:40;16.70;96.60
35463;DHT22;21578;47.892;9.970;2022-08-19T21:11:28;16.60;96.60
35463;DHT22;21578;47.892;9.970;2022-08-19T21:16:16;16.60;96.60
35463;DHT22;21578;47.892;9.970;2022-08-19T21:21:04;16.60;96.60
35463;DHT22;21578;47.892;9.970;2022-08-19T21:25:51;16.60;96.60
35463;DHT22;21578;47.892;9.970;2022-08-19T21:30:40;16.60;96.60
35463;DHT22;21578;47.892;9.970;2022-08-19T21:35:28;16.60;96.60
35463;DHT22;21578;47.892;9.970;2022-08-19T21:40:15;16.60;96.60
35463;DHT22;21578;47.892;9.970;2022-08-19T21:45:03;16.60;96.60
35463;DHT22;21578;47.892;9.970;2022-08-19T21:49:51;16.60;96.60
35463;DHT22;21578;47.892;9.970;2022-08-19T21:54:38;16.60;96.60
35463;DHT22;21578;47.892;9.970;2022-08-19T21:59:25;16.60;96.60
35463;DHT22;21578;47.892;9.970;2022-08-19T22:04:12;16.60;96.60
35463;DHT22;21578;47.892;9.970;2022-08-19T22:09:00;16.60;96.60
35463;DHT22;21578;47.892;9.970;2022-08-19T22:13:47;16.60;96.60
35463;DHT22;21578;47.892;9.970;2022-08-19T22:18:38;16.60;96.60
35463;DHT22;21578;47.892;9.970;2022-08-19T22:23:25;16.50;96.60
35463;DHT22;21578;47.892;9.970;2022-08-19T22:28:15;16.60;96.60
35463;DHT22;21578;47.892;9.970;2022-08-19T22:33:06;16.50;96.60
35463;DHT22;21578;47.892;9.970;2022-08-19T22:37:53;16.60;96.60
35463;DHT22;21578;47.892;9.970;2022-08-19T22:42:40;16.50;96.60
35463;DHT22;21578;47.892;9.970;2022-08-19T22:47:28;16.50;96.60
35463;DHT22;21578;47.892;9.970;2022-08-19T22:52:16;16.60;96.60
35463;DHT22;21578;47.892;9.970;2022-08-19T22:57:03;16.60;96.60
35463;DHT22;21578;47.892;9.970;2022-08-19T23:01:50;16.50;96.60
35463;DHT22;21578;47.892;9.970;2022-08-19T23:06:39;16.60;96.60
35463;DHT22;21578;47.892;9.970;2022-08-19T23:11:26;16.60;96.60
35463;DHT22;21578;47.892;9.970;2022-08-19T23:16:13;16.50;96.60
35463;DHT22;21578;47.892;9.970;2022-08-19T23:21:00;16.50;96.60
35463;DHT22;21578;47.892;9.970;2022-08-19T23:25:49;16.60;96.60
35463;DHT22;21578;47.892;9.970;2022-08-19T23:30:40;16.50;96.60
35463;DHT22;21578;47.892;9.970;2022-08-19T23:35:32;16.50;96.60
35463;DHT22;21578;47.892;9.970;2022-08-19T23:40:19;16.40;96.60
35463;DHT22;21578;47.892;9.970;2022-08-19T23:45:09;16.40;96.60
35463;DHT22;21578;47.892;9.970;2022-08-19T23:49:56;16.40;96.60
35463;DHT22;21578;47.892;9.970;2022-08-19T23:54:43;16.40;96.60
35463;DHT22;21578;47.892;9.970;2022-08-19T23:59:30;16.40;96.60
